Time;durP1;ratioP1;P1;durP2;ratioP2;P2;SDS_P1;SDS_P2;PMS_P1;PMS_P2;Temp;Humidity;BMP_temperature;BMP_pressure;BME280_temperature;BME280_humidity;BME280_pressure;Samples;Min_cycle;Max_cycle;Signal;HPM_P1;HPM_P2
2021/06/10 00:02:14;;;;;;;14.17;10.83;;;;;;;;;;10285483;28;20554;-62
2021/06/10 00:07:12;;;;;;;12.60;10.83;;;;;;;;;;10292687;28;20033;-64
2021/06/10 00:12:11;;;;;;;14.38;9.90;;;;;;;;;;10289600;28;20033;-65
2021/06/10 00:17:08;;;;;;;12.30;9.38;;;;;;;;;;10282858;28;20080;-65
2021/06/10 00:22:05;;;;;;;9.50;8.57;;;;;;;;;;10297016;28;20071;-64
2021/06/10 00:27:03;;;;;;;10.47;9.40;;;;;;;;;;10292965;28;20046;-64
2021/06/10 00:32:00;;;;;;;12.53;9.13;;;;;;;;;;10271121;28;20092;-64
2021/06/10 00:36:58;;;;;;;13.33;9.83;;;;;;;;;;10285905;28;20284;-63
2021/06/10 00:41:55;;;;;;;14.33;9.60;;;;;;;;;;10284087;28;20037;-65
2021/06/10 00:46:53;;;;;;;9.10;8.07;;;;;;;;;;10291131;28;20022;-66
2021/06/10 00:51:50;;;;;;;10.67;8.70;;;;;;;;;;10294570;28;20128;-65
2021/06/10 00:56:48;;;;;;;11.77;9.43;;;;;;;;;;10298551;28;20057;-65
2021/06/10 01:01:46;;;;;;;11.43;8.98;;;;;;;;;;10291362;28;20040;-67
2021/06/10 01:06:52;;;;;;;14.10;10.17;;;;;;;;;;10301462;28;20417;-67
2021/06/10 01:11:49;;;;;;;12.35;9.80;;;;;;;;;;10295009;28;20120;-67
2021/06/10 01:16:47;;;;;;;11.27;8.57;;;;;;;;;;10288602;28;20105;-67
2021/06/10 01:21:45;;;;;;;10.32;7.93;;;;;;;;;;10303677;28;20045;-67
2021/06/10 01:26:55;;;;;;;11.38;9.65;;;;;;;;;;10294148;28;20033;-67
2021/06/10 01:31:53;;;;;;;13.93;9.55;;;;;;;;;;10291445;28;20049;-67
2021/06/10 01:36:52;;;;;;;13.57;9.73;;;;;;;;;;10277729;28;20482;-67
2021/06/10 01:41:50;;;;;;;12.27;10.50;;;;;;;;;;10286619;28;20040;-67
2021/06/10 01:46:49;;;;;;;12.00;9.07;;;;;;;;;;10298783;28;20806;-67
2021/06/10 01:51:46;;;;;;;12.82;9.57;;;;;;;;;;10288461;28;20072;-67
2021/06/10 01:56:44;;;;;;;10.93;9.43;;;;;;;;;;10278984;28;20129;-67
2021/06/10 02:01:42;;;;;;;12.20;9.57;;;;;;;;;;10297322;28;20488;-67
2021/06/10 02:06:41;;;;;;;10.73;9.63;;;;;;;;;;10289771;28;20065;-66
2021/06/10 02:11:39;;;;;;;9.75;8.63;;;;;;;;;;10289369;28;20106;-66
2021/06/10 02:16:41;;;;;;;11.20;9.50;;;;;;;;;;10297912;28;20048;-65
2021/06/10 02:21:39;;;;;;;11.70;8.90;;;;;;;;;;10290831;28;20042;-65
2021/06/10 02:26:36;;;;;;;12.57;9.10;;;;;;;;;;10303275;28;20045;-65
2021/06/10 02:31:34;;;;;;;13.53;9.70;;;;;;;;;;10305340;28;20047;-65
2021/06/10 02:36:31;;;;;;;10.20;8.90;;;;;;;;;;10305634;28;20049;-65
2021/06/10 02:41:30;;;;;;;11.80;8.93;;;;;;;;;;10304750;28;20083;-65
2021/06/10 02:46:28;;;;;;;10.43;8.93;;;;;;;;;;10304974;28;20041;-65
2021/06/10 02:51:25;;;;;;;;;;;;;;;;;;10305523;28;20045;-63
2021/06/10 02:56:23;;;;;;;11.80;9.75;;;;;;;;;;10305048;28;20002;-65
2021/06/10 03:01:21;;;;;;;11.20;10.10;;;;;;;;;;10304643;28;20038;-65
2021/06/10 03:06:19;;;;;;;;;;;;;;;;;;10305516;28;20037;-66
2021/06/10 03:11:16;;;;;;;10.82;9.43;;;;;;;;;;10305223;28;19913;-66
2021/06/10 03:16:14;;;;;;;13.07;9.20;;;;;;;;;;10301716;28;20132;-66
2021/06/10 03:21:12;;;;;;;11.98;9.00;;;;;;;;;;10304146;28;20029;-67
2021/06/10 03:26:09;;;;;;;10.80;9.70;;;;;;;;;;10286649;28;20041;-65
2021/06/10 03:31:07;;;;;;;10.53;8.50;;;;;;;;;;10303701;28;20268;-64
2021/06/10 03:36:06;;;;;;;9.77;8.47;;;;;;;;;;10304062;28;20041;-64
2021/06/10 03:41:03;;;;;;;9.93;8.70;;;;;;;;;;10303748;28;20034;-66
2021/06/10 03:46:03;;;;;;;11.17;8.60;;;;;;;;;;10303874;28;20038;-67
2021/06/10 03:51:00;;;;;;;9.48;8.23;;;;;;;;;;10285727;28;20049;-66
2021/06/10 03:55:58;;;;;;;11.53;9.63;;;;;;;;;;10309081;28;20051;-66
2021/06/10 04:00:55;;;;;;;12.40;9.90;;;;;;;;;;10311814;28;20041;-66
2021/06/10 04:05:53;;;;;;;9.27;8.27;;;;;;;;;;10273661;28;20117;-66
2021/06/10 04:10:50;;;;;;;11.30;9.20;;;;;;;;;;10310795;28;20083;-66
2021/06/10 04:15:48;;;;;;;10.97;9.47;;;;;;;;;;10311154;28;20601;-66
2021/06/10 04:20:46;;;;;;;5.57;4.30;;;;;;;;;;10284840;28;20103;-66
2021/06/10 04:25:43;;;;;;;8.07;5.05;;;;;;;;;;10252998;28;20045;-66
2021/06/10 04:30:41;;;;;;;6.70;4.27;;;;;;;;;;10286027;28;20558;-64
2021/06/10 04:35:38;;;;;;;5.40;3.83;;;;;;;;;;10285881;28;20300;-65
2021/06/10 04:40:36;;;;;;;14.07;8.77;;;;;;;;;;10286795;28;20350;-65
2021/06/10 04:45:33;;;;;;;15.17;11.00;;;;;;;;;;10278394;28;20037;-62
2021/06/10 04:50:32;;;;;;;14.37;10.93;;;;;;;;;;10283418;28;20038;-64
2021/06/10 04:55:30;;;;;;;14.73;10.25;;;;;;;;;;10265243;28;20065;-64
2021/06/10 05:00:28;;;;;;;15.43;11.30;;;;;;;;;;10284616;28;20998;-65
2021/06/10 05:05:25;;;;;;;14.47;11.70;;;;;;;;;;10276991;28;20959;-64
2021/06/10 05:10:23;;;;;;;13.43;6.63;;;;;;;;;;10273888;28;20499;-65
2021/06/10 05:15:20;;;;;;;9.13;5.93;;;;;;;;;;10277025;28;20033;-62
2021/06/10 05:20:18;;;;;;;9.97;6.47;;;;;;;;;;10275339;28;20518;-65
2021/06/10 05:25:15;;;;;;;8.73;6.40;;;;;;;;;;10282406;28;20103;-64
2021/06/10 05:30:13;;;;;;;10.53;6.93;;;;;;;;;;10267003;28;20558;-64
2021/06/10 05:35:10;;;;;;;11.10;6.30;;;;;;;;;;10279590;28;20454;-63
2021/06/10 05:40:08;;;;;;;13.27;7.65;;;;;;;;;;10286901;28;20087;-63
2021/06/10 05:45:06;;;;;;;11.93;7.27;;;;;;;;;;10289262;28;20033;-63
2021/06/10 05:50:05;;;;;;;11.63;6.50;;;;;;;;;;10286311;28;20292;-62
2021/06/10 05:55:02;;;;;;;14.30;8.38;;;;;;;;;;10289184;28;21520;-63
2021/06/10 05:59:59;;;;;;;11.40;7.53;;;;;;;;;;10291100;28;20042;-62
2021/06/10 06:04:57;;;;;;;2.00;1.67;;;;;;;;;;10290040;28;20029;-63
2021/06/10 06:09:54;;;;;;;2.47;1.43;;;;;;;;;;10283656;28;20156;-63
2021/06/10 06:14:52;;;;;;;11.57;8.87;;;;;;;;;;10284217;28;20050;-62
2021/06/10 06:19:49;;;;;;;13.23;8.70;;;;;;;;;;10273631;28;20034;-64
2021/06/10 06:24:47;;;;;;;19.20;12.47;;;;;;;;;;10281465;28;20415;-64
2021/06/10 06:29:44;;;;;;;18.10;13.37;;;;;;;;;;10278098;28;20049;-64
2021/06/10 06:34:42;;;;;;;15.07;9.20;;;;;;;;;;10273064;28;20041;-63
2021/06/10 06:39:39;;;;;;;15.33;10.17;;;;;;;;;;10281222;28;20029;-63
2021/06/10 06:44:37;;;;;;;20.40;11.77;;;;;;;;;;10286398;28;20486;-63
2021/06/10 06:49:35;;;;;;;15.20;9.80;;;;;;;;;;10275270;28;20522;-64
2021/06/10 06:54:34;;;;;;;19.30;10.85;;;;;;;;;;10260278;28;20045;-63
2021/06/10 06:59:33;;;;;;;24.10;11.07;;;;;;;;;;10276018;28;20041;-63
2021/06/10 07:04:30;;;;;;;;;;;;;;;;;;10255604;28;20091;-63
2021/06/10 07:09:27;;;;;;;18.90;11.23;;;;;;;;;;10276857;28;19913;-63
2021/06/10 07:14:25;;;;;;;;;;;;;;;;;;10283079;28;20031;-63
2021/06/10 07:19:22;;;;;;;20.33;12.50;;;;;;;;;;10266072;28;19944;-64
2021/06/10 07:24:20;;;;;;;;;;;;;;;;;;10260701;28;20549;-64
2021/06/10 07:29:18;;;;;;;20.13;12.10;;;;;;;;;;10279681;28;19913;-62
2021/06/10 07:34:15;;;;;;;18.42;11.88;;;;;;;;;;10276764;28;20083;-65
2021/06/10 07:39:12;;;;;;;18.67;11.43;;;;;;;;;;10292919;28;20104;-65
2021/06/10 07:44:10;;;;;;;18.40;12.20;;;;;;;;;;10284482;28;20276;-64
2021/06/10 07:49:07;;;;;;;17.15;12.20;;;;;;;;;;10283083;28;20041;-64
2021/06/10 07:54:05;;;;;;;18.02;11.55;;;;;;;;;;10275722;28;20038;-63
2021/06/10 07:59:03;;;;;;;16.55;10.23;;;;;;;;;;10290046;28;20438;-64
2021/06/10 08:04:00;;;;;;;12.43;8.07;;;;;;;;;;10284867;28;20047;-64
2021/06/10 08:08:58;;;;;;;14.37;9.97;;;;;;;;;;10288598;28;20048;-63
2021/06/10 08:13:55;;;;;;;15.17;9.70;;;;;;;;;;10274822;28;20541;-64
2021/06/10 08:18:53;;;;;;;12.37;7.87;;;;;;;;;;10289953;28;20700;-64
2021/06/10 08:23:50;;;;;;;12.32;7.60;;;;;;;;;;10283877;28;20124;-64
2021/06/10 08:28:48;;;;;;;10.83;7.67;;;;;;;;;;10279706;28;20099;-64
2021/06/10 08:33:45;;;;;;;10.88;7.85;;;;;;;;;;10278554;28;20144;-64
2021/06/10 08:38:43;;;;;;;12.10;6.90;;;;;;;;;;10283506;28;20038;-64
2021/06/10 08:43:41;;;;;;;10.75;7.70;;;;;;;;;;10283890;28;20041;-64
2021/06/10 08:48:42;;;;;;;9.38;6.53;;;;;;;;;;10266341;28;20088;-65
2021/06/10 08:53:40;;;;;;;14.18;10.57;;;;;;;;;;10274957;28;20064;-63
2021/06/10 08:58:38;;;;;;;13.23;10.38;;;;;;;;;;10278150;28;20099;-64
2021/06/10 09:03:36;;;;;;;14.52;9.75;;;;;;;;;;10282103;28;20048;-64
2021/06/10 09:08:34;;;;;;;16.17;12.27;;;;;;;;;;10285109;28;20044;-65
2021/06/10 09:13:35;;;;;;;8.70;7.05;;;;;;;;;;10284187;28;20042;-64
2021/06/10 09:18:33;;;;;;;9.88;8.43;;;;;;;;;;10278153;28;20037;-64
2021/06/10 09:23:32;;;;;;;7.70;5.40;;;;;;;;;;10276413;28;20045;-64
2021/06/10 09:28:30;;;;;;;10.70;7.82;;;;;;;;;;10284755;28;20148;-65
2021/06/10 09:33:41;;;;;;;11.15;9.80;;;;;;;;;;10274717;28;21509;-65
2021/06/10 09:38:39;;;;;;;17.42;11.38;;;;;;;;;;10276804;28;20511;-65
2021/06/10 09:43:41;;;;;;;13.55;9.98;;;;;;;;;;10290420;28;20060;-65
2021/06/10 09:48:38;;;;;;;13.38;9.63;;;;;;;;;;10274975;28;20521;-64
2021/06/10 09:53:36;;;;;;;11.73;9.40;;;;;;;;;;10266402;28;20041;-64
2021/06/10 09:58:39;;;;;;;12.97;10.47;;;;;;;;;;10280552;28;20281;-66
2021/06/10 10:03:41;;;;;;;10.40;8.70;;;;;;;;;;10286751;28;20382;-65
2021/06/10 10:08:39;;;;;;;13.95;8.77;;;;;;;;;;10269261;28;20530;-64
2021/06/10 10:13:37;;;;;;;13.80;9.23;;;;;;;;;;10281376;28;20569;-65
2021/06/10 10:18:34;;;;;;;12.18;9.60;;;;;;;;;;10278086;28;20034;-65
2021/06/10 10:23:33;;;;;;;12.90;10.65;;;;;;;;;;10283348;28;20037;-65
2021/06/10 10:28:33;;;;;;;14.05;9.68;;;;;;;;;;10282387;28;20041;-65
2021/06/10 10:33:31;;;;;;;13.18;10.10;;;;;;;;;;10282835;28;20045;-65
2021/06/10 10:38:32;;;;;;;11.55;10.23;;;;;;;;;;10263673;28;20658;-64
2021/06/10 10:43:30;;;;;;;13.82;12.10;;;;;;;;;;10276121;28;20049;-65
2021/06/10 10:48:32;;;;;;;14.32;11.60;;;;;;;;;;10279469;28;20033;-65
2021/06/10 10:53:42;;;;;;;14.55;12.55;;;;;;;;;;10271081;28;20049;-64
2021/06/10 10:58:40;;;;;;;19.38;13.77;;;;;;;;;;10265074;28;20111;-65
2021/06/10 11:03:38;;;;;;;21.95;18.10;;;;;;;;;;10259892;28;20091;-64
2021/06/10 11:08:54;;;;;;;23.65;21.15;;;;;;;;;;10279470;28;20045;-65
2021/06/10 11:13:51;;;;;;;21.13;18.92;;;;;;;;;;10276680;28;20128;-64
2021/06/10 11:18:50;;;;;;;19.10;16.23;;;;;;;;;;10264508;28;20112;-65
2021/06/10 11:24:09;;;;;;;21.70;14.25;;;;;;;;;;10253715;28;20630;-64
2021/06/10 11:29:07;;;;;;;18.85;14.80;;;;;;;;;;10263208;28;20086;-64
2021/06/10 11:34:23;;;;;;;22.40;15.37;;;;;;;;;;10260047;28;20037;-64
2021/06/10 11:39:20;;;;;;;21.85;17.88;;;;;;;;;;10281719;28;20395;-65
2021/06/10 11:44:18;;;;;;;23.50;17.55;;;;;;;;;;10234438;28;20091;-64
2021/06/10 11:49:15;;;;;;;25.48;17.25;;;;;;;;;;10245957;28;20029;-63
2021/06/10 11:54:14;;;;;;;27.40;20.07;;;;;;;;;;10273131;28;20379;-64
2021/06/10 11:59:24;;;;;;;26.33;18.73;;;;;;;;;;10270572;28;20284;-64
2021/06/10 12:04:25;;;;;;;23.17;18.40;;;;;;;;;;10277838;28;20034;-63
2021/06/10 12:09:23;;;;;;;26.92;19.45;;;;;;;;;;10235162;28;21206;-64
2021/06/10 12:14:20;;;;;;;22.83;17.97;;;;;;;;;;10245593;28;20080;-63
2021/06/10 12:19:18;;;;;;;21.67;16.35;;;;;;;;;;10269570;28;20042;-64
2021/06/10 12:24:15;;;;;;;19.23;14.25;;;;;;;;;;10264738;28;20033;-64
2021/06/10 12:29:13;;;;;;;23.03;18.27;;;;;;;;;;10278370;28;20052;-64
2021/06/10 12:34:10;;;;;;;23.57;18.63;;;;;;;;;;10268945;28;20590;-64
2021/06/10 12:39:18;;;;;;;21.23;16.83;;;;;;;;;;10260723;28;20097;-63
2021/06/10 12:44:15;;;;;;;19.83;15.75;;;;;;;;;;10286643;28;20300;-64
2021/06/10 12:49:14;;;;;;;23.08;17.38;;;;;;;;;;10274579;28;20045;-64
2021/06/10 12:54:15;;;;;;;20.77;17.10;;;;;;;;;;10250463;28;20088;-64
2021/06/10 12:59:27;;;;;;;22.05;19.15;;;;;;;;;;10262718;28;20076;-63
2021/06/10 13:04:24;;;;;;;15.85;12.85;;;;;;;;;;10285572;28;20380;-63
2021/06/10 13:09:23;;;;;;;21.67;18.53;;;;;;;;;;10279642;28;20041;-63
2021/06/10 13:14:20;;;;;;;20.48;16.83;;;;;;;;;;10278730;28;20037;-63
2021/06/10 13:19:24;;;;;;;20.53;16.80;;;;;;;;;;10280215;28;20029;-63
2021/06/10 13:24:22;;;;;;;19.05;16.75;;;;;;;;;;10274776;28;20045;-63
2021/06/10 13:29:19;;;;;;;18.67;16.70;;;;;;;;;;10265428;28;20233;-62
2021/06/10 13:34:19;;;;;;;5.93;3.30;;;;;;;;;;10276976;28;20166;-65
2021/06/10 13:39:17;;;;;;;3.65;3.17;;;;;;;;;;10236497;28;20099;-65
2021/06/10 13:44:14;;;;;;;5.37;3.47;;;;;;;;;;10249789;28;20088;-64
2021/06/10 13:49:12;;;;;;;4.95;2.80;;;;;;;;;;10260659;28;20033;-64
2021/06/10 13:54:09;;;;;;;3.77;2.73;;;;;;;;;;10269596;28;20824;-65
2021/06/10 13:59:07;;;;;;;2.87;2.60;;;;;;;;;;10283811;28;20064;-64
2021/06/10 14:04:05;;;;;;;3.33;3.00;;;;;;;;;;10277926;28;20470;-65
2021/06/10 14:09:03;;;;;;;3.00;2.70;;;;;;;;;;10276383;28;20026;-65
2021/06/10 14:14:00;;;;;;;3.72;2.78;;;;;;;;;;10286493;28;20069;-64
2021/06/10 14:19:02;;;;;;;2.63;2.40;;;;;;;;;;10271718;28;20049;-65
2021/06/10 14:23:59;;;;;;;2.83;2.53;;;;;;;;;;10270692;28;20466;-65
2021/06/10 14:29:08;;;;;;;2.50;2.15;;;;;;;;;;10279650;28;20056;-65
2021/06/10 14:34:06;;;;;;;2.65;2.45;;;;;;;;;;10243407;28;20204;-65
2021/06/10 14:39:04;;;;;;;2.60;2.25;;;;;;;;;;10275296;28;20248;-65
2021/06/10 14:44:02;;;;;;;3.58;1.98;;;;;;;;;;10275833;28;20123;-65
2021/06/10 14:49:01;;;;;;;2.35;2.13;;;;;;;;;;10282894;28;20116;-65
2021/06/10 14:53:59;;;;;;;1.92;1.55;;;;;;;;;;10280904;28;20151;-65
2021/06/10 14:58:56;;;;;;;1.80;1.63;;;;;;;;;;10276794;28;20183;-65
2021/06/10 15:03:53;;;;;;;1.70;1.50;;;;;;;;;;10267727;28;20038;-65
2021/06/10 15:08:51;;;;;;;1.80;1.70;;;;;;;;;;10275969;28;20034;-66
2021/06/10 15:13:49;;;;;;;1.60;1.50;;;;;;;;;;10282301;28;20075;-65
2021/06/10 15:18:47;;;;;;;3.47;1.80;;;;;;;;;;10270117;28;20087;-65
2021/06/10 15:23:45;;;;;;;2.78;1.40;;;;;;;;;;10260054;28;20978;-65
2021/06/10 15:28:43;;;;;;;1.55;1.27;;;;;;;;;;10279193;28;20094;-65
2021/06/10 15:33:42;;;;;;;1.27;1.17;;;;;;;;;;10260912;28;20774;-65
2021/06/10 15:38:40;;;;;;;3.60;1.48;;;;;;;;;;10278075;28;20292;-65
2021/06/10 15:43:38;;;;;;;1.15;1.13;;;;;;;;;;10244060;28;20042;-66
2021/06/10 15:48:36;;;;;;;1.50;1.40;;;;;;;;;;10260333;28;20120;-65
2021/06/10 15:53:33;;;;;;;1.73;1.60;;;;;;;;;;10256410;28;20041;-65
2021/06/10 15:58:31;;;;;;;1.65;1.55;;;;;;;;;;10282172;28;20033;-65
2021/06/10 16:03:28;;;;;;;1.63;1.30;;;;;;;;;;10273442;28;20048;-65
2021/06/10 16:08:26;;;;;;;1.40;1.30;;;;;;;;;;10273328;28;20128;-65
2021/06/10 16:13:23;;;;;;;1.33;1.23;;;;;;;;;;10283355;28;20049;-65
2021/06/10 16:18:21;;;;;;;1.58;1.25;;;;;;;;;;10283289;28;20041;-66
2021/06/10 16:23:18;;;;;;;1.30;1.20;;;;;;;;;;10283780;28;20037;-65
2021/06/10 16:28:15;;;;;;;1.73;1.30;;;;;;;;;;10272931;28;20063;-65
2021/06/10 16:33:13;;;;;;;1.50;1.35;;;;;;;;;;10280789;28;20091;-66
2021/06/10 16:38:10;;;;;;;2.27;1.40;;;;;;;;;;10284212;28;20030;-64
2021/06/10 16:43:08;;;;;;;1.83;1.30;;;;;;;;;;10274977;28;20034;-65
2021/06/10 16:48:06;;;;;;;1.90;1.23;;;;;;;;;;10289688;28;20128;-64
2021/06/10 16:53:03;;;;;;;1.85;1.23;;;;;;;;;;10281580;28;20045;-65
2021/06/10 16:58:01;;;;;;;1.33;1.23;;;;;;;;;;10286626;28;20034;-65
2021/06/10 17:08:02;;;;;;;1.40;1.30;;;;;;;;;;10269311;28;20172;-65
2021/06/10 17:13:03;;;;;;;1.30;1.20;;;;;;;;;;10278743;28;20136;-66
2021/06/10 17:18:04;;;;;;;1.30;1.20;;;;;;;;;;10269628;28;20436;-65
2021/06/10 17:23:02;;;;;;;0.82;0.82;;;;;;;;;;10275833;28;20044;-65
2021/06/10 17:27:59;;;;;;;4.97;2.55;;;;;;;;;;10282976;28;20586;-65
2021/06/10 17:32:56;;;;;;;38.07;21.20;;;;;;;;;;10268871;28;20041;-65
2021/06/10 17:37:54;;;;;;;47.60;27.23;;;;;;;;;;10258558;28;20048;-65
2021/06/10 17:42:51;;;;;;;15.13;7.00;;;;;;;;;;10278116;28;20530;-65
2021/06/10 17:47:49;;;;;;;6.17;3.70;;;;;;;;;;10281054;28;20280;-65
2021/06/10 17:52:47;;;;;;;8.30;4.47;;;;;;;;;;10266235;28;20062;-65
2021/06/10 17:57:44;;;;;;;6.40;3.43;;;;;;;;;;10266916;28;20097;-64
2021/06/10 18:02:41;;;;;;;5.33;3.00;;;;;;;;;;10265096;28;20099;-64
2021/06/10 18:07:39;;;;;;;7.20;2.92;;;;;;;;;;10277585;28;20037;-64
2021/06/10 18:12:37;;;;;;;3.15;2.20;;;;;;;;;;10273758;28;20139;-64
2021/06/10 18:17:34;;;;;;;3.35;1.83;;;;;;;;;;10274039;28;20033;-64
2021/06/10 18:22:32;;;;;;;3.83;1.90;;;;;;;;;;10280211;28;20037;-64
2021/06/10 18:27:29;;;;;;;3.97;1.88;;;;;;;;;;10279044;28;20675;-64
2021/06/10 18:32:27;;;;;;;1.90;1.70;;;;;;;;;;10268335;28;20068;-63
2021/06/10 18:37:24;;;;;;;3.47;1.80;;;;;;;;;;10271621;28;20746;-64
2021/06/10 18:42:22;;;;;;;1.60;1.50;;;;;;;;;;10277886;28;20036;-64
2021/06/10 18:47:19;;;;;;;2.17;1.75;;;;;;;;;;10265590;28;20041;-65
2021/06/10 18:52:17;;;;;;;3.70;1.17;;;;;;;;;;10269692;28;20045;-64
2021/06/10 18:57:14;;;;;;;1.52;1.33;;;;;;;;;;10273425;28;20072;-64
2021/06/10 19:02:12;;;;;;;1.47;1.27;;;;;;;;;;10266824;28;20033;-64
2021/06/10 19:07:09;;;;;;;1.63;1.10;;;;;;;;;;10259448;28;20132;-64
2021/06/10 19:12:07;;;;;;;1.33;1.07;;;;;;;;;;10245575;28;20809;-64
2021/06/10 19:17:04;;;;;;;1.73;1.10;;;;;;;;;;10263398;28;20033;-64
2021/06/10 19:22:01;;;;;;;1.10;1.00;;;;;;;;;;10279292;28;20034;-64
2021/06/10 19:26:59;;;;;;;1.20;0.90;;;;;;;;;;10255056;28;21431;-63
2021/06/10 19:31:56;;;;;;;1.45;0.95;;;;;;;;;;10266266;28;20304;-64
2021/06/10 19:36:54;;;;;;;1.13;1.03;;;;;;;;;;10260785;28;20041;-64
2021/06/10 19:41:51;;;;;;;1.03;1.03;;;;;;;;;;10269809;28;20034;-64
2021/06/10 19:46:48;;;;;;;2.40;1.20;;;;;;;;;;10249436;28;20030;-63
2021/06/10 19:51:46;;;;;;;1.53;1.10;;;;;;;;;;10272542;28;20574;-64
2021/06/10 19:56:43;;;;;;;1.60;1.20;;;;;;;;;;10273614;28;20507;-64
2021/06/10 20:01:40;;;;;;;1.20;1.10;;;;;;;;;;10275477;28;20076;-64
2021/06/10 20:06:38;;;;;;;1.23;1.13;;;;;;;;;;10266070;28;20038;-64
2021/06/10 20:11:36;;;;;;;1.45;1.35;;;;;;;;;;10249156;28;20045;-64
2021/06/10 20:16:33;;;;;;;1.40;1.20;;;;;;;;;;10264734;28;20042;-65
2021/06/10 20:21:31;;;;;;;1.47;1.23;;;;;;;;;;10250364;28;20147;-64
2021/06/10 20:26:33;;;;;;;1.83;1.40;;;;;;;;;;10278038;28;20107;-64
2021/06/10 20:31:31;;;;;;;1.27;1.20;;;;;;;;;;10256501;28;20040;-64
2021/06/10 20:36:29;;;;;;;1.10;1.10;;;;;;;;;;10255507;28;20045;-65
2021/06/10 20:41:27;;;;;;;1.83;1.25;;;;;;;;;;10253055;28;20040;-64
2021/06/10 20:46:25;;;;;;;1.23;1.13;;;;;;;;;;10280963;28;20041;-64
2021/06/10 20:51:23;;;;;;;1.23;1.13;;;;;;;;;;10250230;28;20100;-65
2021/06/10 20:56:20;;;;;;;1.92;1.30;;;;;;;;;;10265502;28;20897;-64
2021/06/10 21:01:18;;;;;;;1.80;1.60;;;;;;;;;;10266090;28;20030;-64
2021/06/10 21:06:15;;;;;;;1.70;1.60;;;;;;;;;;10283574;28;20338;-64
2021/06/10 21:11:13;;;;;;;1.45;1.38;;;;;;;;;;10232370;28;20065;-64
2021/06/10 21:16:10;;;;;;;1.20;1.10;;;;;;;;;;10277650;28;21944;-64
2021/06/10 21:21:08;;;;;;;1.88;1.67;;;;;;;;;;10263399;28;20025;-64
2021/06/10 21:26:05;;;;;;;1.63;1.30;;;;;;;;;;10281399;28;20037;-64
2021/06/10 21:31:03;;;;;;;1.15;1.15;;;;;;;;;;10267690;28;20326;-64
2021/06/10 21:36:00;;;;;;;2.33;1.70;;;;;;;;;;10261294;28;20026;-63
2021/06/10 21:40:57;;;;;;;1.70;1.60;;;;;;;;;;10269590;28;20026;-64
2021/06/10 21:45:55;;;;;;;2.30;1.50;;;;;;;;;;10275347;28;20280;-63
2021/06/10 21:50:52;;;;;;;1.63;1.53;;;;;;;;;;10278443;28;20838;-63
2021/06/10 21:55:50;;;;;;;1.73;1.30;;;;;;;;;;10280769;28;20262;-63
2021/06/10 22:00:48;;;;;;;1.20;1.10;;;;;;;;;;10280764;28;20037;-63
2021/06/10 22:05:47;;;;;;;1.80;1.70;;;;;;;;;;10282743;28;20084;-63
2021/06/10 22:10:44;;;;;;;2.15;1.58;;;;;;;;;;10264127;28;20040;-64
2021/06/10 22:15:42;;;;;;;;;;;;;;;;;;10281571;28;20037;-65
2021/06/10 22:20:40;;;;;;;1.70;1.60;;;;;;;;;;10271344;28;20012;-64
2021/06/10 22:25:37;;;;;;;;;;;;;;;;;;10272769;28;20121;-63
2021/06/10 22:30:37;;;;;;;1.60;1.50;;;;;;;;;;10278074;28;20310;-63
2021/06/10 22:35:36;;;;;;;1.40;1.30;;;;;;;;;;10270072;28;20139;-64
2021/06/10 22:40:35;;;;;;;1.65;1.55;;;;;;;;;;10276138;28;20065;-64
2021/06/10 22:45:33;;;;;;;1.75;1.48;;;;;;;;;;10261537;28;20045;-63
2021/06/10 22:50:32;;;;;;;2.22;1.95;;;;;;;;;;10267048;28;20046;-63
2021/06/10 22:55:31;;;;;;;2.38;1.75;;;;;;;;;;10258257;28;20048;-63
2021/06/10 23:00:28;;;;;;;1.95;1.50;;;;;;;;;;10277645;28;20048;-62
2021/06/10 23:05:26;;;;;;;1.60;1.50;;;;;;;;;;10282069;28;20590;-61
2021/06/10 23:10:23;;;;;;;2.50;1.67;;;;;;;;;;10281991;28;20403;-61
2021/06/10 23:15:20;;;;;;;1.93;1.70;;;;;;;;;;10278706;28;20056;-61
2021/06/10 23:20:19;;;;;;;1.70;1.60;;;;;;;;;;10276943;28;20026;-62
2021/06/10 23:25:16;;;;;;;3.90;1.73;;;;;;;;;;10252937;28;20777;-64
2021/06/10 23:30:14;;;;;;;2.37;1.77;;;;;;;;;;10267664;28;20033;-64
2021/06/10 23:35:11;;;;;;;1.50;1.40;;;;;;;;;;10261450;28;20148;-64
2021/06/10 23:40:09;;;;;;;1.80;1.70;;;;;;;;;;10253931;28;20401;-63
2021/06/10 23:45:07;;;;;;;1.73;1.60;;;;;;;;;;10272894;28;20041;-64
2021/06/10 23:50:04;;;;;;;1.70;1.50;;;;;;;;;;10277079;28;20265;-63
2021/06/10 23:55:02;;;;;;;1.75;1.58;;;;;;;;;;10273405;28;20049;-62
2021/06/10 23:59:59;;;;;;;2.15;1.95;;;;;;;;;;10276927;28;20097;-62
